createdAt,value
2022-08-29T00:02:05.536Z,99932.97
2022-08-29T00:04:49.529Z,99933.16
2022-08-29T00:07:35.427Z,99937.41
2022-08-29T00:10:19.661Z,99919.72
2022-08-29T00:13:06.723Z,99925.78
2022-08-29T00:15:50.634Z,99934.38
2022-08-29T00:18:34.901Z,99921.56
2022-08-29T00:21:18.778Z,99935.53
2022-08-29T00:24:04.617Z,99933.53
2022-08-29T00:26:48.586Z,99938.25
2022-08-29T00:29:32.399Z,99932.34
2022-08-29T00:32:16.299Z,99943.13
2022-08-29T00:35:00.153Z,99934.22
2022-08-29T00:37:45.116Z,99944.84
2022-08-29T00:40:33.851Z,99945.22
2022-08-29T00:43:19.608Z,99941.28
2022-08-29T00:46:13.169Z,99925.00
2022-08-29T00:49:00.334Z,99945.69
2022-08-29T00:51:44.442Z,99945.53
2022-08-29T00:54:28.497Z,99941.13
2022-08-29T00:57:14.380Z,99945.19
2022-08-29T00:59:58.939Z,99945.03
2022-08-29T01:02:43.490Z,99944.53
2022-08-29T01:05:27.785Z,99948.53
2022-08-29T01:08:11.819Z,99943.50
2022-08-29T01:11:13.626Z,99944.00
2022-08-29T01:14:01.330Z,99931.75
2022-08-29T01:16:47.106Z,99937.97
2022-08-29T01:19:44.194Z,99796.38
2022-08-29T01:22:40.993Z,99937.63
2022-08-29T01:25:28.691Z,99946.88
2022-08-29T01:28:17.250Z,99928.69
2022-08-29T01:31:06.459Z,99937.44
2022-08-29T01:33:54.459Z,99934.09
2022-08-29T01:36:42.946Z,99918.09
2022-08-29T01:39:29.264Z,99925.66
2022-08-29T01:42:19.126Z,99923.81
2022-08-29T01:45:03.305Z,99858.63
2022-08-29T01:47:47.318Z,99929.38
2022-08-29T01:50:32.983Z,99906.66
2022-08-29T01:53:17.626Z,99908.81
2022-08-29T01:56:09.484Z,99920.59
2022-08-29T01:58:56.445Z,99922.16
2022-08-29T02:01:43.348Z,99900.94
2022-08-29T02:04:27.502Z,99909.31
2022-08-29T02:07:12.826Z,99903.06
2022-08-29T02:09:56.912Z,99919.25
2022-08-29T02:12:41.013Z,99911.16
2022-08-29T02:15:26.349Z,99918.63
2022-08-29T02:18:10.349Z,99919.94
2022-08-29T02:20:54.184Z,99907.47
2022-08-29T02:23:39.848Z,99891.81
2022-08-29T02:26:24.053Z,99916.91
2022-08-29T02:29:09.734Z,99923.63
2022-08-29T02:31:55.403Z,99899.06
2022-08-29T02:34:40.068Z,99922.81
2022-08-29T02:37:27.976Z,99929.06
2022-08-29T02:40:12.300Z,99915.56
2022-08-29T02:42:57.028Z,99923.31
2022-08-29T02:45:43.537Z,99893.84
2022-08-29T02:48:28.957Z,99920.94
2022-08-29T02:51:19.438Z,99928.00
2022-08-29T02:54:03.911Z,99910.81
2022-08-29T02:56:47.742Z,99896.00
2022-08-29T02:59:31.595Z,99934.06
2022-08-29T03:02:15.648Z,99923.91
2022-08-29T03:05:01.144Z,99932.88
2022-08-29T03:07:50.805Z,99945.00
2022-08-29T03:10:36.712Z,99939.63
2022-08-29T03:13:20.547Z,99936.44
2022-08-29T03:16:05.933Z,99954.81
2022-08-29T03:18:50.153Z,99939.28
2022-08-29T03:21:35.500Z,99956.13
2022-08-29T03:24:26.356Z,99957.66
2022-08-29T03:27:11.097Z,99951.19
2022-08-29T03:29:54.925Z,99954.03
2022-08-29T03:32:39.172Z,99951.91
2022-08-29T03:35:23.365Z,99947.34
2022-08-29T03:38:08.847Z,99956.44
2022-08-29T03:40:53.521Z,99957.81
2022-08-29T03:43:42.239Z,99958.00
2022-08-29T03:46:27.178Z,99958.34
2022-08-29T03:49:11.331Z,99964.38
2022-08-29T03:51:55.600Z,99970.63
2022-08-29T03:54:40.780Z,99963.84
2022-08-29T03:57:25.029Z,99965.38
2022-08-29T04:00:12.326Z,99946.50
2022-08-29T04:02:58.358Z,99963.81
2022-08-29T04:05:42.983Z,99968.03
2022-08-29T04:08:26.922Z,99970.06
2022-08-29T04:11:13.706Z,99973.53
2022-08-29T04:13:57.522Z,99976.47
2022-08-29T04:16:41.445Z,99957.03
2022-08-29T04:19:25.300Z,99968.56
2022-08-29T04:22:09.505Z,99981.88
2022-08-29T04:24:53.475Z,99970.34
2022-08-29T04:27:39.284Z,99975.19
2022-08-29T04:30:24.978Z,99956.84
2022-08-29T04:33:08.932Z,99982.38
2022-08-29T04:36:00.219Z,99980.13
2022-08-29T04:38:44.251Z,99976.81
2022-08-29T04:41:28.171Z,99951.78
2022-08-29T04:44:14.429Z,99980.53
2022-08-29T04:46:58.414Z,99977.50
2022-08-29T04:49:42.537Z,99977.31
2022-08-29T04:52:28.211Z,99888.03
2022-08-29T04:55:13.154Z,99977.91
2022-08-29T04:57:57.542Z,99976.63
2022-08-29T05:00:42.753Z,99979.41
2022-08-29T05:03:26.767Z,99974.06
2022-08-29T05:06:14.350Z,99988.34
2022-08-29T05:08:59.047Z,99978.72
2022-08-29T05:11:43.942Z,99983.50
2022-08-29T05:14:27.984Z,99989.19
2022-08-29T05:17:14.410Z,99984.47
2022-08-29T05:19:58.614Z,99980.22
2022-08-29T05:22:43.463Z,99983.94
2022-08-29T05:25:27.600Z,99963.25
2022-08-29T05:28:12.324Z,99958.06
2022-08-29T05:30:56.557Z,99978.44
2022-08-29T05:33:41.915Z,99972.81
2022-08-29T05:36:25.953Z,99993.41
2022-08-29T05:39:09.855Z,99996.59
2022-08-29T05:41:58.531Z,99984.00
2022-08-29T05:44:42.328Z,99999.16
2022-08-29T05:47:26.629Z,99994.13
2022-08-29T05:50:13.764Z,99994.38
2022-08-29T05:52:57.733Z,99993.81
2022-08-29T05:55:42.081Z,99978.78
2022-08-29T05:58:26.587Z,99989.69
2022-08-29T06:01:10.381Z,99992.25
2022-08-29T06:03:55.118Z,99990.19
2022-08-29T06:06:42.508Z,99998.00
2022-08-29T06:09:26.548Z,99990.34
2022-08-29T06:12:12.063Z,99966.25
2022-08-29T06:14:56.072Z,99986.59
2022-08-29T06:17:40.282Z,100000.22
2022-08-29T06:20:24.533Z,99986.41
2022-08-29T06:23:10.153Z,99992.69
2022-08-29T06:25:57.354Z,99971.13
2022-08-29T06:28:46.061Z,99969.88
2022-08-29T06:31:30.237Z,100003.56
2022-08-29T06:34:14.456Z,100002.72
2022-08-29T06:36:59.633Z,99982.63
2022-08-29T06:39:45.211Z,100000.44
2022-08-29T06:42:29.274Z,99999.38
2022-08-29T06:45:13.301Z,99999.38
2022-08-29T06:47:57.353Z,99994.31
2022-08-29T06:50:45.543Z,99998.03
2022-08-29T06:53:32.313Z,99986.59
2022-08-29T06:56:19.163Z,99984.66
2022-08-29T06:59:03.262Z,99998.16
2022-08-29T07:01:48.516Z,99998.44
2022-08-29T07:04:34.115Z,99974.44
2022-08-29T07:07:19.289Z,99991.22
2022-08-29T07:10:03.451Z,100001.66
2022-08-29T07:12:49.075Z,99970.41
2022-08-29T07:15:33.119Z,99997.38
2022-08-29T07:18:17.335Z,99971.00
2022-08-29T07:21:01.404Z,99994.88
2022-08-29T07:23:46.284Z,99939.06
2022-08-29T07:26:33.253Z,99999.94
2022-08-29T07:29:21.517Z,99992.53
2022-08-29T07:32:05.586Z,100004.25
2022-08-29T07:34:54.058Z,99988.97
2022-08-29T07:37:39.844Z,100008.31
2022-08-29T07:40:23.962Z,100007.34
2022-08-29T07:43:07.866Z,99894.28
2022-08-29T07:45:53.194Z,99992.91
2022-08-29T07:48:37.519Z,100007.81
2022-08-29T07:51:24.106Z,100012.34
2022-08-29T07:54:07.995Z,100020.09
2022-08-29T07:56:53.738Z,100004.59
2022-08-29T07:59:37.650Z,100009.66
2022-08-29T08:02:23.122Z,100011.94
2022-08-29T08:05:08.003Z,100014.91
2022-08-29T08:07:55.678Z,100014.72
2022-08-29T08:10:40.501Z,99978.91
2022-08-29T08:13:28.127Z,100008.56
2022-08-29T08:16:14.524Z,99981.03
2022-08-29T08:19:00.118Z,99975.63
2022-08-29T08:21:49.909Z,99990.81
2022-08-29T08:24:34.143Z,100013.69
2022-08-29T08:27:17.986Z,99984.94
2022-08-29T08:30:01.861Z,100014.13
2022-08-29T08:32:49.558Z,100016.94
2022-08-29T08:35:42.001Z,100007.38
2022-08-29T08:38:26.186Z,99999.13
2022-08-29T08:41:26.426Z,100005.91
2022-08-29T08:44:30.001Z,100008.03
2022-08-29T08:47:26.959Z,100004.13
2022-08-29T08:50:18.486Z,100002.25
2022-08-29T08:53:11.978Z,100006.75
2022-08-29T08:56:00.011Z,100007.19
2022-08-29T08:58:52.291Z,99997.31
2022-08-29T09:01:40.888Z,100000.28
2022-08-29T09:04:55.079Z,99998.16
2022-08-29T09:07:51.229Z,100002.44
2022-08-29T09:10:44.683Z,99999.53
2022-08-29T09:13:38.660Z,99992.44
2022-08-29T09:16:27.911Z,99997.75
2022-08-29T09:19:17.261Z,100003.72
2022-08-29T09:22:10.744Z,99986.78
2022-08-29T09:24:59.166Z,99994.19
2022-08-29T09:27:44.954Z,99997.31
2022-08-29T09:30:31.280Z,99995.00
2022-08-29T09:33:19.111Z,99988.00
2022-08-29T09:36:04.752Z,99999.91
2022-08-29T09:38:48.609Z,99993.63
2022-08-29T09:41:32.440Z,99994.91
2022-08-29T09:44:23.934Z,99989.09
2022-08-29T09:47:12.563Z,99998.06
2022-08-29T09:50:08.276Z,100002.25
2022-08-29T09:52:53.905Z,99996.44
2022-08-29T09:55:42.550Z,99981.31
2022-08-29T09:58:34.243Z,99997.56
2022-08-29T10:01:27.605Z,100006.66
2022-08-29T10:04:13.477Z,100004.97
2022-08-29T10:07:10.704Z,99995.88
2022-08-29T10:10:01.528Z,99974.34
2022-08-29T10:12:53.064Z,99979.47
2022-08-29T10:15:51.371Z,99998.69
2022-08-29T10:18:46.023Z,100004.75
2022-08-29T10:21:37.233Z,99999.91
2022-08-29T10:24:31.390Z,100003.03
2022-08-29T10:27:28.679Z,100002.78
2022-08-29T10:30:16.180Z,100011.63
2022-08-29T10:33:19.634Z,100002.22
2022-08-29T10:36:13.396Z,100007.47
2022-08-29T10:39:04.168Z,100011.19
2022-08-29T10:41:57.352Z,100011.78
2022-08-29T10:44:53.754Z,100016.13
2022-08-29T10:47:41.928Z,100007.78
2022-08-29T10:50:44.241Z,100000.72
2022-08-29T10:53:38.289Z,99982.47
2022-08-29T10:56:25.900Z,100007.41
2022-08-29T10:59:23.154Z,99995.25
2022-08-29T11:02:12.301Z,100006.47
2022-08-29T11:05:00.715Z,100000.84
2022-08-29T11:07:50.604Z,99994.72
2022-08-29T11:10:41.486Z,100001.78
2022-08-29T11:13:30.523Z,99988.63
2022-08-29T11:16:19.703Z,99992.22
2022-08-29T11:19:10.484Z,99984.69
2022-08-29T11:22:00.237Z,99986.72
2022-08-29T11:24:47.333Z,99990.63
2022-08-29T11:27:40.225Z,99948.63
2022-08-29T11:30:29.552Z,99953.19
2022-08-29T11:33:23.990Z,99968.25
2022-08-29T11:36:29.282Z,99970.81
2022-08-29T11:39:38.361Z,99974.06
2022-08-29T11:45:37.552Z,99968.28
2022-08-29T11:48:34.740Z,99966.50
2022-08-29T11:51:31.975Z,99969.59
2022-08-29T11:54:52.204Z,99976.53
2022-08-29T11:57:58.306Z,99960.41
2022-08-29T12:00:51.436Z,99964.97
2022-08-29T12:03:57.588Z,99954.59
2022-08-29T12:07:01.245Z,99973.00
2022-08-29T12:09:51.614Z,99965.63
2022-08-29T12:12:47.523Z,99962.28
2022-08-29T12:15:54.806Z,99960.66
2022-08-29T12:18:48.830Z,99965.22
2022-08-29T12:21:48.875Z,99946.91
2022-08-29T12:24:41.853Z,99942.31
2022-08-29T12:28:01.310Z,99961.88
2022-08-29T12:30:48.898Z,99962.06
2022-08-29T12:33:47.357Z,99958.03
2022-08-29T12:36:51.951Z,99966.47
2022-08-29T12:40:01.744Z,99961.81
2022-08-29T12:43:03.397Z,99926.19
2022-08-29T12:45:50.483Z,99950.56
2022-08-29T12:48:42.429Z,99944.56
2022-08-29T12:51:34.830Z,99963.38
2022-08-29T12:54:32.628Z,99960.56
2022-08-29T12:57:20.249Z,99953.69
2022-08-29T13:00:12.644Z,99952.06
2022-08-29T13:03:00.797Z,99949.69
2022-08-29T13:05:46.844Z,99927.09
2022-08-29T13:08:33.369Z,99949.84
2022-08-29T13:11:21.795Z,99958.75
2022-08-29T13:14:08.933Z,99925.09
2022-08-29T13:16:53.005Z,99945.88
2022-08-29T13:19:37.016Z,99955.06
2022-08-29T13:22:22.336Z,99948.72
2022-08-29T13:25:07.175Z,99933.88
2022-08-29T13:28:01.574Z,99942.75
2022-08-29T13:30:48.898Z,99937.81
2022-08-29T13:33:35.022Z,99938.38
2022-08-29T13:36:38.288Z,99934.09
2022-08-29T13:39:27.431Z,99930.25
2022-08-29T13:42:16.729Z,99944.47
2022-08-29T13:45:15.303Z,99929.94
2022-08-29T13:48:20.458Z,99929.69
2022-08-29T13:51:06.706Z,99932.66
2022-08-29T13:53:53.209Z,99923.50
2022-08-29T13:56:38.669Z,99931.34
2022-08-29T13:59:25.989Z,99935.28
2022-08-29T14:02:11.319Z,99931.00
2022-08-29T14:04:55.556Z,99928.25
2022-08-29T14:07:39.537Z,99924.22
2022-08-29T14:10:23.503Z,99929.69
2022-08-29T14:13:08.869Z,99917.91
2022-08-29T14:15:52.915Z,99915.97
2022-08-29T14:18:36.897Z,99911.28
2022-08-29T14:21:20.920Z,99904.66
2022-08-29T14:24:05.353Z,99909.38
2022-08-29T14:26:49.453Z,99918.75
2022-08-29T14:29:45.158Z,99890.66
2022-08-29T14:32:29.252Z,99918.25
2022-08-29T14:35:26.182Z,99885.38
2022-08-29T14:38:11.869Z,99890.31
2022-08-29T14:40:56.086Z,99894.97
2022-08-29T14:43:40.835Z,99888.22
2022-08-29T14:46:26.922Z,99909.66
2022-08-29T14:49:11.275Z,99893.25
2022-08-29T14:51:55.253Z,99879.34
2022-08-29T14:54:39.229Z,99885.03
2022-08-29T14:57:23.300Z,99870.53
2022-08-29T15:00:09.847Z,99885.50
2022-08-29T15:02:55.752Z,99911.19
2022-08-29T15:05:39.940Z,99886.38
2022-08-29T15:08:24.040Z,99875.19
2022-08-29T15:11:08.338Z,99884.09
2022-08-29T15:13:52.465Z,99905.34
2022-08-29T15:16:36.573Z,99870.06
2022-08-29T15:20:18.125Z,99845.66
2022-08-29T15:22:27.612Z,99873.09
2022-08-29T15:25:11.600Z,99894.13
2022-08-29T15:27:55.973Z,99893.28
2022-08-29T15:30:40.490Z,99874.09
2022-08-29T15:33:25.333Z,99869.09
2022-08-29T15:36:11.262Z,99867.41
2022-08-29T15:38:55.441Z,99890.25
2022-08-29T15:41:39.582Z,99899.38
2022-08-29T15:44:23.678Z,99875.59
2022-08-29T15:47:10.537Z,99892.41
2022-08-29T15:49:55.280Z,99895.56
2022-08-29T15:52:40.750Z,99893.47
2022-08-29T15:55:24.799Z,99902.97
2022-08-29T15:58:08.768Z,99897.06
2022-08-29T16:00:53.098Z,99902.47
2022-08-29T16:03:37.360Z,99888.19
2022-08-29T16:06:21.217Z,99901.09
2022-08-29T16:09:15.697Z,99910.16
2022-08-29T16:11:59.923Z,99913.28
2022-08-29T16:14:58.934Z,99914.78
2022-08-29T16:17:43.345Z,99880.91
2022-08-29T16:20:27.229Z,99910.53
2022-08-29T16:23:11.514Z,99917.06
2022-08-29T16:25:57.069Z,99902.75
2022-08-29T16:28:41.391Z,99922.84
2022-08-29T16:31:25.691Z,99916.44
2022-08-29T16:34:09.758Z,99924.31
2022-08-29T16:36:56.862Z,99922.78
2022-08-29T16:39:40.802Z,99904.13
2022-08-29T16:42:30.312Z,99909.94
2022-08-29T16:45:16.247Z,99921.03
2022-08-29T16:48:00.882Z,99920.25
2022-08-29T16:50:44.999Z,99922.31
2022-08-29T16:53:28.859Z,99841.13
2022-08-29T16:56:15.764Z,99923.38
2022-08-29T16:59:01.842Z,99925.91
2022-08-29T17:01:48.654Z,99926.50
2022-08-29T17:04:32.850Z,99923.19
2022-08-29T17:07:17.292Z,99917.13
2022-08-29T17:10:02.259Z,99939.03
2022-08-29T17:12:46.147Z,99947.63
2022-08-29T17:15:30.177Z,99945.69
2022-08-29T17:18:14.062Z,99928.91
2022-08-29T17:20:59.915Z,99958.00
2022-08-29T17:23:44.889Z,99951.91
2022-08-29T17:26:29.351Z,99946.94
2022-08-29T17:29:14.008Z,99950.88
2022-08-29T17:31:59.256Z,99937.16
2022-08-29T17:34:44.162Z,99951.75
2022-08-29T17:37:29.510Z,99969.16
2022-08-29T17:40:20.482Z,99968.66
2022-08-29T17:43:05.878Z,99971.88
2022-08-29T17:45:49.742Z,99978.53
2022-08-29T17:48:35.088Z,99977.44
2022-08-29T17:51:19.007Z,99980.84
2022-08-29T17:54:04.480Z,99994.00
2022-08-29T17:56:51.035Z,99987.69
2022-08-29T17:59:36.908Z,99997.22
2022-08-29T18:02:20.868Z,99995.78
2022-08-29T18:05:10.241Z,100003.13
2022-08-29T18:07:54.195Z,99999.78
2022-08-29T18:10:39.869Z,99986.41
2022-08-29T18:13:24.421Z,100002.38
2022-08-29T18:16:11.567Z,99975.13
2022-08-29T18:18:56.254Z,100000.41
2022-08-29T18:21:43.312Z,100000.88
2022-08-29T18:24:27.317Z,100003.06
2022-08-29T18:27:11.364Z,99988.38
2022-08-29T18:29:57.781Z,100006.00
2022-08-29T18:32:42.572Z,100001.69
2022-08-29T18:35:26.642Z,99998.38
2022-08-29T18:38:11.901Z,99971.66
2022-08-29T18:40:56.086Z,99935.00
2022-08-29T18:43:39.888Z,99990.16
2022-08-29T18:46:23.825Z,99999.66
2022-08-29T18:49:08.253Z,100002.81
2022-08-29T18:51:55.573Z,99988.47
2022-08-29T18:54:41.421Z,99999.28
2022-08-29T18:57:25.301Z,100000.59
2022-08-29T19:00:11.256Z,100006.34
2022-08-29T19:02:56.452Z,100007.56
2022-08-29T19:05:43.746Z,100002.00
2022-08-29T19:08:27.664Z,100000.00
2022-08-29T19:11:14.023Z,99989.06
2022-08-29T19:13:58.054Z,99962.34
2022-08-29T19:16:42.364Z,99970.44
2022-08-29T19:19:26.318Z,100002.88
2022-08-29T19:22:11.712Z,99937.41
2022-08-29T19:24:55.719Z,99972.06
2022-08-29T19:27:44.068Z,99964.78
2022-08-29T19:30:28.536Z,99928.41
2022-08-29T19:33:15.346Z,99998.44
2022-08-29T19:35:59.410Z,100000.53
2022-08-29T19:38:43.203Z,99997.34
2022-08-29T19:41:27.562Z,99973.22
2022-08-29T19:44:12.789Z,99991.81
2022-08-29T19:46:58.339Z,99994.44
2022-08-29T19:49:45.377Z,99995.78
2022-08-29T19:52:29.561Z,99977.03
2022-08-29T19:55:17.763Z,99994.16
2022-08-29T19:58:01.798Z,99973.78
2022-08-29T20:00:52.134Z,99966.38
2022-08-29T20:03:39.551Z,99968.50
2022-08-29T20:06:24.388Z,99995.72
2022-08-29T20:09:08.788Z,99949.16
2022-08-29T20:11:52.661Z,99980.19
2022-08-29T20:14:37.213Z,99989.31
2022-08-29T20:17:22.560Z,99991.94
2022-08-29T20:20:11.813Z,99987.22
2022-08-29T20:22:55.930Z,99993.44
2022-08-29T20:25:39.840Z,99899.47
2022-08-29T20:28:23.749Z,99987.00
2022-08-29T20:31:08.002Z,99983.97
2022-08-29T20:33:53.513Z,99982.78
2022-08-29T20:36:54.843Z,99987.78
2022-08-29T20:39:39.518Z,99989.38
2022-08-29T20:42:25.432Z,99984.22
2022-08-29T20:45:10.322Z,99988.69
2022-08-29T20:47:54.294Z,99992.75
2022-08-29T20:50:39.866Z,99991.78
2022-08-29T20:53:32.013Z,99981.78
2022-08-29T20:56:17.003Z,99991.56
2022-08-29T20:59:00.874Z,99987.75
2022-08-29T21:01:45.235Z,99982.81
2022-08-29T21:04:46.848Z,99972.72
2022-08-29T21:07:32.028Z,99978.50
2022-08-29T21:10:15.781Z,99960.19
2022-08-29T21:13:00.121Z,99958.41
2022-08-29T21:15:44.545Z,99981.38
2022-08-29T21:18:28.471Z,99991.50
2022-08-29T21:21:13.536Z,99986.00
2022-08-29T21:23:58.819Z,99979.81
2022-08-29T21:26:42.669Z,99986.91
2022-08-29T21:29:26.519Z,99995.00
2022-08-29T21:32:10.417Z,99996.00
2022-08-29T21:34:54.305Z,99996.19
2022-08-29T21:37:39.292Z,99994.19
2022-08-29T21:40:26.151Z,99996.31
2022-08-29T21:43:09.979Z,100000.38
2022-08-29T21:45:57.298Z,100006.47
2022-08-29T21:48:41.131Z,100003.44
2022-08-29T21:51:25.460Z,99996.00
2022-08-29T21:54:13.389Z,99985.81
2022-08-29T21:56:58.989Z,99991.16
2022-08-29T21:59:42.899Z,99987.66
2022-08-29T22:02:27.663Z,99989.66
2022-08-29T22:05:11.845Z,99990.13
2022-08-29T22:07:55.929Z,99985.81
2022-08-29T22:10:42.680Z,99993.59
2022-08-29T22:13:28.505Z,99980.75
2022-08-29T22:16:30.230Z,99950.16
2022-08-29T22:19:16.302Z,99981.28
2022-08-29T22:22:00.863Z,99984.16
2022-08-29T22:24:44.782Z,99980.13
2022-08-29T22:27:28.747Z,99977.09
2022-08-29T22:30:15.754Z,99988.03
2022-08-29T22:33:00.146Z,99983.25
2022-08-29T22:35:45.234Z,99963.53
2022-08-29T22:38:30.099Z,99958.09
2022-08-29T22:41:16.027Z,99977.88
2022-08-29T22:44:42.462Z,99974.00
2022-08-29T22:47:08.167Z,99996.66
2022-08-29T22:49:52.018Z,99992.44
2022-08-29T22:52:36.197Z,99987.78
2022-08-29T22:58:04.911Z,99978.81
2022-08-29T23:00:48.928Z,99974.75
2022-08-29T23:03:34.207Z,99981.16
2022-08-29T23:06:17.992Z,99986.13
2022-08-29T23:09:03.439Z,99967.41
2022-08-29T23:11:48.015Z,99992.69
2022-08-29T23:14:31.927Z,99979.22
2022-08-29T23:17:17.356Z,99981.25
2022-08-29T23:20:02.725Z,99987.66
2022-08-29T23:22:48.799Z,99976.50
2022-08-29T23:25:32.821Z,99990.69
2022-08-29T23:28:16.845Z,99972.84
2022-08-29T23:31:01.662Z,99983.44
2022-08-29T23:33:45.750Z,99988.34
2022-08-29T23:36:31.136Z,99977.88
2022-08-29T23:39:15.072Z,99989.50
2022-08-29T23:41:59.674Z,99993.38
2022-08-29T23:44:43.637Z,99973.16
2022-08-29T23:47:27.656Z,99982.28
2022-08-29T23:50:14.322Z,99980.25
2022-08-29T23:52:59.662Z,99978.56
2022-08-29T23:55:44.026Z,99978.25
2022-08-29T23:58:28.140Z,99953.31
